Fallon, NV

5:05 AM PDT on September 21, 2014 (GMT -0700)
North Fallon-Rice Rd | Change Station
CLOSE
Current Station
Personal Weather Station
Location: Fallon, NV
Elevation: 3980 ft
Nearby Weather Stations

Elev 3980 ft 39.50 °N, 118.78 °W | Updated 3 seconds ago

Mostly Cloudy
Mostly Cloudy
59.2 °F
Feels Like 59.2 °F
N
0.0
Wind Variable Wind from SW
Gusts 0.0 mph

Today
High -- | Low -- °F
--% Chance of Precip.
Yesterday
High -- | Low -- °F
Precip. -- in
6:41 AM 6:53 PM
Waning Crescent, 7% visible
Pressure 29.98 in
Visibility 10.0 miles
Clouds Clear
Dew Point 51 °F
Humidity 74%
Rainfall 0.00 in
Snow Depth 1 in , 0 in , 0 in
UV 0 out of 12
Pollen 6.20 out of 12
Air Quality Not available.
Flu Activity Not available.
METAR KNFL 211156Z AUTO 35004KT 10SM CLR 16/10 A3007 RMK AO2 SLP150 60000 T01610100 10244 20161 50001

More Conditions Fewer Conditions

Pressure 29.98 in
Visibility 10.0 miles
Clouds Clear
Dew Point 51 °F
Humidity 74%
Rainfall 0.00 in
Snow Depth 1 in , 0 in , 0 in
UV 0 out of 12
Pollen 6.20 out of 12
Air Quality Not available.
Flu Activity Not available.
METAR KNFL 211156Z AUTO 35004KT 10SM CLR 16/10 A3007 RMK AO2 SLP150 60000 T01610100 10244 20161 50001

More Conditions Fewer Conditions

10-Day Weather Forecast

Almanac

Astronomy

Sep. 21, 2014 Rise Set
Actual Time 6:41 AM PDT 6:53 PM PDT
Civil Twilight 6:15 AM PDT 7:20 PM PDT
Nautical Twilight 5:43 AM PDT 7:51 PM PDT
Astronomical Twilight 5:11 AM PDT 8:23 PM PDT
Moon 4:20 AM PDT 5:31 PM PDT
Length of Visible Light 13h 05m
Length of Day
12h 11m
Tomorrow will be 2m 34s shorter.
Waning Crescent, 7% of the Moon is Illuminated
Today
Waning Crescent
Sep 24
New
Oct 1
First Quarter
Oct 8
Full
Oct 15
Last Quarter

Today's Extremes

State Highs State Lows

Community

WunderPhotos

Upload Photos

1,755,126 photos uploaded!

Nearby

Snow Depth

Station Depth Elevation
Granite Peak 1 in 7800 ft
Bear Creek 0 in 7800 ft
Laurel Draw 0 in 6700 ft
Taylor Canyon 1 in 6200 ft
Buckskin Lower 3 in 6700 ft

Earthquake Activity

City Distance Mag. Time & Date
Gabbs, Nevada 48 miles 3.3 4:37 AM PDT
2014-09-19
Minimum magnitude displayed is 2.5.

Coastal Water Temperatures

Place Temperature
No Stations Reporting

Nearby Weather Stations